Time;durP1;ratioP1;P1;durP2;ratioP2;P2;SDS_P1;SDS_P2;PMS_P1;PMS_P2;Temp;Humidity;BMP_temperature;BMP_pressure;BME280_temperature;BME280_humidity;BME280_pressure;Samples;Min_cycle;Max_cycle;Signal;HPM_P1;HPM_P2
2022/10/12 00:01:00;;;;;;;13.68;2.55;;;4.90;99.90;;;;;;5058010;28;20037;-66
2022/10/12 00:03:25;;;;;;;10.73;2.25;;;4.80;99.90;;;;;;5058958;28;20089;-66
2022/10/12 00:06:01;;;;;;;8.73;2.28;;;4.90;99.90;;;;;;5059441;28;20033;-66
2022/10/12 00:08:27;;;;;;;19.10;2.53;;;4.80;99.90;;;;;;5060723;28;20037;-65
2022/10/12 00:10:53;;;;;;;11.50;2.83;;;4.80;99.90;;;;;;5059626;28;20862;-65
2022/10/12 00:13:19;;;;;;;11.32;2.60;;;4.80;99.90;;;;;;5058872;28;20108;-66
2022/10/12 00:15:44;;;;;;;9.68;2.20;;;4.80;99.90;;;;;;5058809;28;20068;-66
2022/10/12 00:18:10;;;;;;;9.38;2.67;;;4.80;99.90;;;;;;5050426;28;20060;-66
2022/10/12 00:20:36;;;;;;;16.92;2.55;;;4.70;99.90;;;;;;5047798;28;20079;-65
2022/10/12 00:23:01;;;;;;;8.27;2.33;;;4.70;99.90;;;;;;5047001;28;20083;-66
2022/10/12 00:25:27;;;;;;;6.43;2.10;;;4.70;99.90;;;;;;5047158;28;20099;-65
2022/10/12 00:27:53;;;;;;;9.95;2.03;;;4.70;99.90;;;;;;5046104;28;20048;-66
2022/10/12 00:30:18;;;;;;;;;;;4.70;99.90;;;;;;5044261;28;20045;-66
2022/10/12 00:32:44;;;;;;;5.80;1.95;;;4.70;99.90;;;;;;5045589;28;20003;-67
2022/10/12 00:35:10;;;;;;;;;;;4.60;99.90;;;;;;5046075;28;20052;-66
2022/10/12 00:37:35;;;;;;;12.45;2.72;;;4.60;99.90;;;;;;5046855;28;20003;-66
2022/10/12 00:40:01;;;;;;;8.88;2.38;;;4.70;99.90;;;;;;5046358;28;20124;-66
2022/10/12 00:42:27;;;;;;;7.13;1.80;;;4.60;99.90;;;;;;5046040;28;20037;-66
2022/10/12 00:44:52;;;;;;;;;;;4.60;99.90;;;;;;5046533;28;20040;-66
2022/10/12 00:47:32;;;;;;;10.85;2.10;;;4.60;99.90;;;;;;5060426;28;19920;-66
2022/10/12 00:50:26;;;;;;;8.70;2.38;;;4.60;99.90;;;;;;5046716;28;20664;-66
2022/10/12 00:53:01;;;;;;;6.13;1.65;;;4.50;99.90;;;;;;5038252;28;20151;-66
2022/10/12 00:55:32;;;;;;;10.27;2.35;;;4.50;99.90;;;;;;5038972;28;20048;-66
2022/10/12 00:57:58;;;;;;;12.88;2.13;;;4.50;99.90;;;;;;5045917;28;20528;-66
2022/10/12 01:00:24;;;;;;;9.35;2.15;;;4.50;99.90;;;;;;5044298;28;20299;-66
2022/10/12 01:02:53;;;;;;;8.55;2.35;;;4.50;99.90;;;;;;5046187;28;20122;-65
2022/10/12 01:05:19;;;;;;;11.38;1.92;;;4.50;99.90;;;;;;5032598;28;20400;-66
2022/10/12 01:07:46;;;;;;;7.65;1.70;;;4.40;99.90;;;;;;5045815;28;20045;-66
2022/10/12 01:10:12;;;;;;;8.27;1.95;;;4.50;99.90;;;;;;5045012;28;20036;-66
2022/10/12 01:12:40;;;;;;;6.65;1.63;;;4.40;99.90;;;;;;5045334;28;20041;-66
2022/10/12 01:15:07;;;;;;;8.95;1.98;;;4.40;99.90;;;;;;5044503;28;20798;-66
2022/10/12 01:17:57;;;;;;;4.55;1.73;;;4.40;99.90;;;;;;5044739;28;20052;-66
2022/10/12 01:20:31;;;;;;;6.18;1.80;;;4.40;99.90;;;;;;5044245;28;20037;-66
2022/10/12 01:23:16;;;;;;;7.05;1.42;;;4.30;99.90;;;;;;5044308;28;20119;-66
2022/10/12 01:25:51;;;;;;;5.78;1.48;;;4.30;99.90;;;;;;5038893;28;20041;-67
2022/10/12 01:28:43;;;;;;;10.60;1.75;;;4.30;99.90;;;;;;5045698;28;20082;-66
2022/10/12 01:31:23;;;;;;;11.65;1.95;;;4.30;99.90;;;;;;5043679;28;20416;-66
2022/10/12 01:34:15;;;;;;;11.93;1.95;;;4.30;99.90;;;;;;5041217;28;20468;-67
2022/10/12 01:36:45;;;;;;;7.47;2.00;;;4.30;99.90;;;;;;5037472;28;20056;-66
2022/10/12 01:39:29;;;;;;;7.53;1.58;;;4.30;99.90;;;;;;5045220;28;20666;-66
2022/10/12 01:42:03;;;;;;;8.38;1.85;;;4.30;99.90;;;;;;5044624;28;20037;-66
2022/10/12 01:44:29;;;;;;;7.32;2.03;;;4.30;99.90;;;;;;5043829;28;20047;-66
2022/10/12 01:46:56;;;;;;;5.55;1.55;;;4.30;99.90;;;;;;5043739;28;20849;-66
2022/10/12 01:49:26;;;;;;;4.47;1.80;;;4.30;99.90;;;;;;5044643;28;20060;-66
2022/10/12 01:52:16;;;;;;;6.65;1.65;;;4.30;99.90;;;;;;5043758;28;20375;-66
2022/10/12 01:55:09;;;;;;;7.25;1.90;;;4.30;99.90;;;;;;5044229;28;20124;-65
2022/10/12 01:57:55;;;;;;;6.28;1.38;;;4.30;99.90;;;;;;5043723;28;20037;-66
2022/10/12 02:00:21;;;;;;;10.95;2.20;;;4.30;99.90;;;;;;5035571;28;20037;-66
2022/10/12 02:02:58;;;;;;;;;;;4.20;99.90;;;;;;5045254;28;20125;-66
2022/10/12 02:05:45;;;;;;;6.20;1.40;;;4.30;99.90;;;;;;5043580;28;19947;-66
2022/10/12 02:08:17;;;;;;;7.50;1.80;;;4.30;99.90;;;;;;5043353;28;20036;-66
2022/10/12 02:11:11;;;;;;;9.48;1.52;;;4.30;99.90;;;;;;5043294;28;20108;-66
2022/10/12 02:13:49;;;;;;;4.63;1.20;;;4.20;99.90;;;;;;5041822;28;20052;-66
2022/10/12 02:16:19;;;;;;;10.45;1.52;;;4.20;99.90;;;;;;5043690;28;20505;-66
2022/10/12 02:18:49;;;;;;;10.57;1.80;;;4.20;99.90;;;;;;5044761;28;20446;-66
2022/10/12 02:21:19;;;;;;;6.70;1.80;;;4.20;99.90;;;;;;5043781;28;20041;-66
2022/10/12 02:23:47;;;;;;;9.55;3.03;;;4.20;99.90;;;;;;5043588;28;20037;-67
2022/10/12 02:26:14;;;;;;;10.80;1.92;;;4.10;99.90;;;;;;5043017;28;20048;-66
2022/10/12 02:28:43;;;;;;;9.80;1.65;;;4.10;99.90;;;;;;5043270;28;20045;-67
2022/10/12 02:31:34;;;;;;;7.47;1.73;;;4.10;99.90;;;;;;5043603;28;20040;-67
2022/10/12 02:34:08;;;;;;;11.80;2.60;;;4.10;99.90;;;;;;5040275;28;20036;-66
2022/10/12 02:36:42;;;;;;;12.75;1.58;;;4.10;99.90;;;;;;5044329;28;20500;-66
2022/10/12 02:39:14;;;;;;;6.88;1.88;;;4.10;99.90;;;;;;5044379;28;20036;-66
2022/10/12 02:41:46;;;;;;;12.13;2.03;;;4.10;99.90;;;;;;5042372;28;20109;-66
2022/10/12 02:44:15;;;;;;;7.82;1.80;;;4.10;99.90;;;;;;5043090;28;20064;-66
2022/10/12 02:46:43;;;;;;;9.52;1.58;;;4.10;99.90;;;;;;5042983;28;20052;-67
2022/10/12 02:49:11;;;;;;;9.48;2.08;;;4.10;99.90;;;;;;5042686;28;20873;-67
2022/10/12 02:51:39;;;;;;;13.23;2.17;;;4.00;99.90;;;;;;5040859;28;20884;-66
2022/10/12 02:54:05;;;;;;;4.35;1.60;;;4.00;99.90;;;;;;5041620;28;20094;-66
2022/10/12 02:56:31;;;;;;;7.20;2.05;;;4.10;99.90;;;;;;5038722;28;20398;-66
2022/10/12 02:58:56;;;;;;;14.68;2.50;;;4.00;99.90;;;;;;5042386;28;20059;-66
2022/10/12 03:01:22;;;;;;;11.73;2.13;;;4.00;99.90;;;;;;5041818;28;20421;-66
2022/10/12 03:03:48;;;;;;;13.30;1.80;;;4.00;99.90;;;;;;5040643;28;20052;-66
2022/10/12 03:06:13;;;;;;;;;;;4.00;99.90;;;;;;5038784;28;20132;-66
2022/10/12 03:08:39;;;;;;;9.85;1.73;;;3.90;99.90;;;;;;5044521;28;19927;-65
2022/10/12 03:11:07;;;;;;;8.07;1.75;;;4.00;99.90;;;;;;5042921;28;20071;-66
2022/10/12 03:13:33;;;;;;;6.20;1.85;;;4.00;99.90;;;;;;5042294;28;20080;-66
2022/10/12 03:16:10;;;;;;;8.55;1.73;;;4.00;99.90;;;;;;5042834;28;20041;-66
2022/10/12 03:18:37;;;;;;;5.32;1.48;;;4.00;99.90;;;;;;5043842;28;20045;-66
2022/10/12 03:21:03;;;;;;;7.43;1.67;;;4.00;99.90;;;;;;5042830;28;20120;-66
2022/10/12 03:23:29;;;;;;;7.15;1.65;;;4.00;99.90;;;;;;5043673;28;20041;-66
2022/10/12 03:25:55;;;;;;;8.32;1.83;;;4.00;99.90;;;;;;5043551;28;20037;-66
2022/10/12 03:28:20;;;;;;;;;;;4.00;99.90;;;;;;5044272;28;20045;-66
2022/10/12 03:30:46;;;;;;;5.35;1.55;;;3.90;99.90;;;;;;5042519;28;19917;-66
2022/10/12 03:33:12;;;;;;;4.95;1.67;;;3.90;99.90;;;;;;5043372;28;20072;-66
2022/10/12 03:35:38;;;;;;;10.73;2.20;;;3.90;99.90;;;;;;5042433;28;20087;-66
2022/10/12 03:38:03;;;;;;;11.40;2.42;;;3.90;99.90;;;;;;5043118;28;20049;-66
2022/10/12 03:40:29;;;;;;;;;;;3.90;99.90;;;;;;5043896;28;20247;-67
2022/10/12 03:42:55;;;;;;;10.80;1.80;;;3.90;99.90;;;;;;5041127;28;19920;-66
2022/10/12 03:45:21;;;;;;;11.15;2.15;;;3.90;99.90;;;;;;5043470;28;20959;-66
2022/10/12 03:47:46;;;;;;;7.63;1.75;;;3.90;99.90;;;;;;5039984;28;20098;-66
2022/10/12 03:50:12;;;;;;;6.07;1.60;;;3.90;99.90;;;;;;5043190;28;20382;-66
2022/10/12 03:52:38;;;;;;;;;;;3.90;99.90;;;;;;5045071;28;20069;-66
2022/10/12 03:55:04;;;;;;;10.85;1.63;;;3.80;99.90;;;;;;5046400;28;20505;-66
2022/10/12 03:57:29;;;;;;;4.97;1.48;;;3.90;99.90;;;;;;5046584;28;20099;-66
2022/10/12 03:59:55;;;;;;;4.32;1.85;;;3.80;99.90;;;;;;5047139;28;20041;-66
2022/10/12 04:02:20;;;;;;;6.35;1.27;;;3.90;99.90;;;;;;5045722;28;20045;-67
2022/10/12 04:04:46;;;;;;;9.68;2.03;;;3.80;99.90;;;;;;5045898;28;20082;-66
2022/10/12 04:07:12;;;;;;;;;;;3.90;99.90;;;;;;5046699;28;20045;-66
2022/10/12 04:09:37;;;;;;;9.13;2.15;;;3.90;99.90;;;;;;5046908;28;19920;-66
2022/10/12 04:12:03;;;;;;;4.90;1.92;;;3.80;99.90;;;;;;5046655;28;20457;-66
2022/10/12 04:14:29;;;;;;;11.48;2.58;;;3.80;99.90;;;;;;5046287;28;20084;-66
2022/10/12 04:16:54;;;;;;;11.95;1.85;;;3.80;99.90;;;;;;5045851;28;20877;-67
2022/10/12 04:19:21;;;;;;;8.55;2.08;;;3.80;99.90;;;;;;5045953;28;20182;-66
2022/10/12 04:21:47;;;;;;;4.80;1.50;;;3.80;99.90;;;;;;5044707;28;20037;-66
2022/10/12 04:24:13;;;;;;;11.73;2.13;;;3.70;99.90;;;;;;5045601;28;20045;-66
2022/10/12 04:26:38;;;;;;;8.85;1.98;;;3.70;99.90;;;;;;5045898;28;20045;-66
2022/10/12 04:29:04;;;;;;;7.85;2.00;;;3.60;99.90;;;;;;5046860;28;20048;-66
2022/10/12 04:31:30;;;;;;;10.77;1.92;;;3.60;99.90;;;;;;5043217;28;20041;-67
2022/10/12 04:33:56;;;;;;;6.90;1.88;;;3.60;99.90;;;;;;5045768;28;20045;-66
2022/10/12 04:36:23;;;;;;;11.30;1.98;;;3.50;99.90;;;;;;5046010;28;20049;-66
2022/10/12 04:38:48;;;;;;;8.65;1.85;;;3.50;99.90;;;;;;5047505;28;20140;-66
2022/10/12 04:41:14;;;;;;;9.57;1.98;;;3.50;99.90;;;;;;5046142;28;20572;-67
2022/10/12 04:43:40;;;;;;;11.95;2.33;;;3.60;99.90;;;;;;5045499;28;20090;-66
2022/10/12 04:46:05;;;;;;;7.07;2.35;;;3.60;99.90;;;;;;5046610;28;20359;-66
2022/10/12 04:48:31;;;;;;;9.70;1.90;;;3.60;99.90;;;;;;5046645;28;20094;-66
2022/10/12 04:50:57;;;;;;;9.43;2.03;;;3.60;99.90;;;;;;5044750;28;20396;-65
2022/10/12 04:53:23;;;;;;;9.45;2.35;;;3.60;99.90;;;;;;5043808;28;20040;-66
2022/10/12 04:55:48;;;;;;;8.07;1.77;;;3.60;99.90;;;;;;5037699;28;20348;-66
2022/10/12 04:58:14;;;;;;;8.57;1.73;;;3.60;99.90;;;;;;5045416;28;20037;-67
2022/10/12 05:00:40;;;;;;;14.40;1.90;;;3.60;99.90;;;;;;5044944;28;20037;-65
2022/10/12 05:03:05;;;;;;;8.82;1.65;;;3.60;99.90;;;;;;5045591;28;20409;-65
2022/10/12 05:05:33;;;;;;;8.10;2.30;;;3.60;99.90;;;;;;5041280;28;20439;-65
2022/10/12 05:07:59;;;;;;;9.57;1.90;;;3.60;99.90;;;;;;5046633;28;20048;-66
2022/10/12 05:10:25;;;;;;;7.88;1.92;;;3.60;99.90;;;;;;5044314;28;20045;-66
2022/10/12 05:12:51;;;;;;;6.43;1.60;;;3.60;99.90;;;;;;5060330;28;20060;-65
2022/10/12 05:15:17;;;;;;;6.60;1.70;;;3.50;99.90;;;;;;5045275;28;20489;-65
2022/10/12 05:17:43;;;;;;;11.90;2.15;;;3.60;99.90;;;;;;5042687;28;20037;-64
2022/10/12 05:20:09;;;;;;;10.88;2.00;;;3.60;99.90;;;;;;5045613;28;20040;-64
2022/10/12 05:22:35;;;;;;;10.05;1.70;;;3.60;99.90;;;;;;5045740;28;20033;-63
2022/10/12 05:25:01;;;;;;;6.20;2.03;;;3.50;99.90;;;;;;5045480;28;20526;-64
2022/10/12 05:27:26;;;;;;;5.75;1.73;;;3.50;99.90;;;;;;5042874;28;20111;-64
2022/10/12 05:29:52;;;;;;;5.95;1.98;;;3.40;99.90;;;;;;5046531;28;20437;-64
2022/10/12 05:32:18;;;;;;;5.65;2.20;;;3.40;99.90;;;;;;5043493;28;20887;-65
2022/10/12 05:34:43;;;;;;;12.98;2.60;;;3.40;99.90;;;;;;5045087;28;20049;-65
2022/10/12 05:37:09;;;;;;;9.95;1.75;;;3.40;99.90;;;;;;5045454;28;20064;-66
2022/10/12 05:39:36;;;;;;;8.23;1.67;;;3.40;99.90;;;;;;5045181;28;20072;-65
2022/10/12 05:42:03;;;;;;;6.28;1.92;;;3.50;99.90;;;;;;5044887;28;20044;-66
2022/10/12 05:44:28;;;;;;;8.95;2.10;;;3.50;99.90;;;;;;5044863;28;20441;-64
2022/10/12 05:46:54;;;;;;;9.10;2.35;;;3.60;99.90;;;;;;5045093;28;20044;-65
2022/10/12 05:49:20;;;;;;;11.73;2.30;;;3.60;99.90;;;;;;5045577;28;20045;-64
2022/10/12 05:51:45;;;;;;;8.00;2.45;;;3.60;99.90;;;;;;5043443;28;20044;-64
2022/10/12 05:54:11;;;;;;;8.32;2.05;;;3.60;99.90;;;;;;5043210;28;20520;-65
2022/10/12 05:56:37;;;;;;;10.25;2.00;;;3.60;99.90;;;;;;5044196;28;20048;-64
2022/10/12 05:59:03;;;;;;;7.90;2.03;;;3.60;99.90;;;;;;5044153;28;20045;-64
2022/10/12 06:01:29;;;;;;;9.00;2.45;;;3.60;99.90;;;;;;5040948;28;20078;-64
2022/10/12 06:03:55;;;;;;;8.45;2.08;;;3.60;99.90;;;;;;5076366;28;20071;-65
2022/10/12 06:06:21;;;;;;;11.85;2.20;;;3.60;99.90;;;;;;5044439;28;20681;-65
2022/10/12 06:08:46;;;;;;;;;;;3.60;99.90;;;;;;5045263;28;20041;-65
2022/10/12 06:11:12;;;;;;;6.88;2.55;;;3.50;99.90;;;;;;5043673;28;19921;-65
2022/10/12 06:13:38;;;;;;;10.23;2.10;;;3.60;99.90;;;;;;5042546;28;20577;-65
2022/10/12 06:16:04;;;;;;;6.60;1.83;;;3.60;99.90;;;;;;5038822;28;20032;-64
2022/10/12 06:18:30;;;;;;;6.93;2.00;;;3.60;99.90;;;;;;5044966;28;20175;-62
2022/10/12 06:20:56;;;;;;;18.58;2.42;;;3.60;99.90;;;;;;5044836;28;20124;-64
2022/10/12 06:23:22;;;;;;;;;;;3.60;99.90;;;;;;5044744;28;20052;-61
2022/10/12 06:25:49;;;;;;;11.60;2.33;;;3.60;99.90;;;;;;5044762;28;19921;-66
2022/10/12 06:28:18;;;;;;;7.55;2.20;;;3.70;99.90;;;;;;5060396;28;20497;-64
2022/10/12 06:30:45;;;;;;;12.10;1.95;;;3.80;99.90;;;;;;5042939;28;20070;-66
2022/10/12 06:33:11;;;;;;;7.50;1.80;;;3.80;99.90;;;;;;5044828;28;20041;-66
2022/10/12 06:35:36;;;;;;;15.10;2.65;;;3.90;99.90;;;;;;5043309;28;20029;-65
2022/10/12 06:38:02;;;;;;;;;;;3.80;99.90;;;;;;5044334;28;20742;-67
2022/10/12 06:40:28;;;;;;;10.35;2.42;;;3.90;99.90;;;;;;5041606;28;19917;-67
2022/10/12 06:42:54;;;;;;;5.40;2.17;;;4.10;99.90;;;;;;5041998;28;20485;-68
2022/10/12 06:45:19;;;;;;;11.20;2.00;;;4.30;99.90;;;;;;5042003;28;20746;-65
2022/10/12 06:47:45;;;;;;;12.95;2.17;;;4.40;99.90;;;;;;5043770;28;20473;-65
2022/10/12 06:50:11;;;;;;;9.75;2.15;;;4.50;99.90;;;;;;5026216;28;20484;-67
2022/10/12 06:52:37;;;;;;;;;;;4.60;99.90;;;;;;5044195;28;20116;-66
2022/10/12 06:55:03;;;;;;;11.05;3.28;;;4.70;99.90;;;;;;5043291;28;19920;-65
2022/10/12 06:57:29;;;;;;;11.85;2.63;;;4.80;99.90;;;;;;5042615;28;20048;-65
2022/10/12 06:59:55;;;;;;;11.63;2.78;;;4.80;99.90;;;;;;5035803;28;20115;-65
2022/10/12 07:02:21;;;;;;;5.78;2.85;;;4.90;99.90;;;;;;5042625;28;20056;-63
2022/10/12 07:04:51;;;;;;;16.75;3.58;;;5.00;99.90;;;;;;5038016;28;20079;-64
2022/10/12 07:07:17;;;;;;;12.38;3.20;;;4.90;99.90;;;;;;5058455;28;20051;-65
2022/10/12 07:09:43;;;;;;;16.33;3.13;;;5.00;99.90;;;;;;5043567;28;20517;-66
2022/10/12 07:12:09;;;;;;;12.00;2.60;;;5.00;99.90;;;;;;5041590;28;20041;-64
2022/10/12 07:14:34;;;;;;;;;;;5.00;99.90;;;;;;5044730;28;20049;-66
2022/10/12 07:19:13;;;;;;;12.85;3.45;;;5.00;99.90;;;;;;5070920;27;20133;-66
2022/10/12 07:21:39;;;;;;;10.13;3.63;;;5.00;99.90;;;;;;5080391;28;20539;-66
2022/10/12 07:24:05;;;;;;;13.23;3.15;;;5.00;99.90;;;;;;5081922;28;20609;-68
2022/10/12 07:26:31;;;;;;;20.58;3.38;;;5.10;99.90;;;;;;5082236;28;20589;-66
2022/10/12 07:28:57;;;;;;;14.07;2.80;;;5.10;99.90;;;;;;5082188;28;20593;-66
2022/10/12 07:31:23;;;;;;;11.88;2.72;;;5.10;99.90;;;;;;5081606;28;20040;-67
2022/10/12 07:33:49;;;;;;;11.57;2.63;;;5.20;99.90;;;;;;5081375;28;20366;-66
2022/10/12 07:36:15;;;;;;;21.15;3.67;;;5.40;99.90;;;;;;5084915;28;20070;-67
2022/10/12 07:38:44;;;;;;;13.27;3.22;;;5.50;99.90;;;;;;5031795;27;20059;-67
2022/10/12 07:41:11;;;;;;;11.13;2.80;;;5.50;99.90;;;;;;5085910;28;20058;-66
2022/10/12 07:43:38;;;;;;;12.25;2.70;;;5.70;99.90;;;;;;5081879;28;20041;-66
2022/10/12 07:46:04;;;;;;;14.88;3.17;;;5.80;99.90;;;;;;5083269;28;20052;-65
2022/10/12 07:48:30;;;;;;;12.63;3.00;;;5.90;99.90;;;;;;5084563;28;20048;-65
2022/10/12 07:51:01;;;;;;;;;;;6.00;99.90;;;;;;5081807;28;20821;-65
2022/10/12 07:53:27;;;;;;;11.55;2.58;;;6.10;99.90;;;;;;5086987;28;19920;-66
2022/10/12 07:55:58;;;;;;;;;;;6.30;99.90;;;;;;5087700;28;20494;-66
2022/10/12 07:58:24;;;;;;;11.57;2.40;;;6.50;99.90;;;;;;5078687;28;19930;-67
2022/10/12 08:00:49;;;;;;;;;;;6.60;99.90;;;;;;5081286;28;20522;-69
2022/10/12 08:03:15;;;;;;;9.70;2.22;;;6.70;99.90;;;;;;5080358;28;19931;-68
2022/10/12 08:05:41;;;;;;;12.52;2.33;;;6.80;99.90;;;;;;5083627;28;20036;-68
2022/10/12 08:08:07;;;;;;;9.02;2.13;;;6.90;99.90;;;;;;5080599;28;20109;-67
2022/10/12 08:10:34;;;;;;;6.10;1.98;;;7.00;99.90;;;;;;5079544;28;20044;-67
2022/10/12 08:13:00;;;;;;;9.05;2.17;;;7.10;99.90;;;;;;5088051;28;20615;-67
2022/10/12 08:15:26;;;;;;;7.05;2.00;;;7.30;99.90;;;;;;5091143;28;20122;-67
2022/10/12 08:17:52;;;;;;;;;;;7.40;99.90;;;;;;5079885;28;20044;-68
2022/10/12 08:20:17;;;;;;;6.07;1.60;;;7.50;99.90;;;;;;5080278;28;19916;-67
2022/10/12 08:22:43;;;;;;;;;;;7.60;99.90;;;;;;5075332;28;20054;-67
2022/10/12 08:25:09;;;;;;;8.53;2.57;;;7.70;99.90;;;;;;5079686;28;19985;-67
2022/10/12 08:27:37;;;;;;;;;;;7.80;99.90;;;;;;5080884;28;20082;-67
2022/10/12 08:30:05;;;;;;;;;;;7.90;99.90;;;;;;5073017;28;19927;-68
2022/10/12 08:32:32;;;;;;;4.13;1.73;;;8.10;99.90;;;;;;5067102;28;19916;-67
2022/10/12 08:34:58;;;;;;;5.13;2.15;;;8.20;99.90;;;;;;5068074;28;20032;-67
2022/10/12 08:37:23;;;;;;;;;;;8.40;99.90;;;;;;5066577;28;20040;-67
2022/10/12 08:39:50;;;;;;;11.00;2.35;;;8.60;99.90;;;;;;5067041;28;19920;-67
2022/10/12 08:42:27;;;;;;;12.25;2.58;;;8.80;99.90;;;;;;5069105;28;20048;-67
2022/10/12 08:45:12;;;;;;;8.00;2.15;;;9.00;99.90;;;;;;5062137;28;20123;-69
2022/10/12 08:47:45;;;;;;;9.27;2.33;;;9.30;99.90;;;;;;5062018;28;20049;-69
2022/10/12 08:50:22;;;;;;;11.77;2.45;;;9.60;99.90;;;;;;5065761;28;20045;-67
2022/10/12 08:52:54;;;;;;;10.25;2.10;;;10.00;99.90;;;;;;5055718;28;20068;-71
2022/10/12 08:55:45;;;;;;;10.02;2.40;;;10.20;99.90;;;;;;5059163;28;20059;-67
2022/10/12 08:58:28;;;;;;;9.98;2.55;;;10.30;99.90;;;;;;5066516;28;20501;-67
2022/10/12 09:01:21;;;;;;;9.43;2.45;;;10.50;99.90;;;;;;5066349;28;20397;-69
2022/10/12 09:04:08;;;;;;;9.35;2.13;;;10.80;99.90;;;;;;5059902;28;20272;-67
2022/10/12 09:06:44;;;;;;;9.50;2.03;;;11.00;99.90;;;;;;5061388;28;20055;-68
2022/10/12 09:09:33;;;;;;;8.93;1.98;;;11.20;99.90;;;;;;5061972;28;20045;-69
2022/10/12 09:12:20;;;;;;;10.38;2.22;;;11.30;99.90;;;;;;5061343;28;20176;-67
2022/10/12 09:14:46;;;;;;;;;;;11.30;99.90;;;;;;5061248;28;20050;-67
2022/10/12 09:17:55;;;;;;;4.47;1.70;;;11.20;99.90;;;;;;5065828;28;19963;-67
2022/10/12 09:20:34;;;;;;;7.25;2.55;;;11.40;99.90;;;;;;5042085;28;20071;-67
2022/10/12 09:23:25;;;;;;;12.60;1.75;;;11.60;99.90;;;;;;5054956;28;20055;-68
2022/10/12 09:26:00;;;;;;;16.85;2.40;;;11.80;99.90;;;;;;5064116;28;20029;-68
2022/10/12 09:28:41;;;;;;;8.83;2.60;;;12.00;99.90;;;;;;5063896;28;20048;-69
2022/10/12 09:31:21;;;;;;;11.60;2.22;;;12.10;99.90;;;;;;5065992;28;20856;-68
2022/10/12 09:33:55;;;;;;;9.02;1.85;;;12.40;99.90;;;;;;5074464;28;20048;-67
2022/10/12 09:36:22;;;;;;;8.85;1.90;;;12.50;99.90;;;;;;5074615;28;20094;-69
2022/10/12 09:38:49;;;;;;;9.32;2.33;;;12.60;99.90;;;;;;5077741;28;20051;-67
2022/10/12 09:41:33;;;;;;;7.60;1.80;;;12.80;99.90;;;;;;5068549;28;20044;-68
2022/10/12 09:44:01;;;;;;;12.63;2.05;;;12.90;99.90;;;;;;5070739;28;20041;-67
2022/10/12 09:47:23;;;;;;;9.05;1.80;;;13.00;99.90;;;;;;5074337;28;20792;-69
2022/10/12 09:49:50;;;;;;;4.70;2.05;;;13.20;99.90;;;;;;5013546;28;20080;-66
2022/10/12 09:52:23;;;;;;;7.60;2.00;;;13.40;99.90;;;;;;5065750;28;20060;-66
2022/10/12 09:54:58;;;;;;;8.95;2.60;;;13.50;99.90;;;;;;5072592;28;20512;-67
2022/10/12 09:57:33;;;;;;;5.60;1.47;;;13.60;99.90;;;;;;5072777;28;20051;-66
2022/10/12 10:00:01;;;;;;;6.07;1.83;;;13.70;99.90;;;;;;5075599;28;20032;-69
2022/10/12 10:02:27;;;;;;;9.82;2.40;;;13.50;99.90;;;;;;5073416;28;20542;-67
2022/10/12 10:04:54;;;;;;;10.52;1.92;;;13.40;99.90;;;;;;5074530;28;20127;-67
2022/10/12 10:07:21;;;;;;;6.25;2.20;;;13.30;99.90;;;;;;5072336;28;20122;-67
2022/10/12 10:10:02;;;;;;;6.78;2.33;;;13.50;99.90;;;;;;5074750;28;20412;-69
2022/10/12 10:12:28;;;;;;;11.02;2.10;;;13.50;99.90;;;;;;5073853;28;20423;-66
2022/10/12 10:14:56;;;;;;;5.90;1.83;;;13.30;99.90;;;;;;5072345;28;20402;-66
2022/10/12 10:17:28;;;;;;;5.32;1.90;;;13.30;99.90;;;;;;5069483;28;20056;-67
2022/10/12 10:19:55;;;;;;;11.35;3.17;;;13.10;99.90;;;;;;5073886;28;20037;-66
2022/10/12 10:22:23;;;;;;;7.10;1.85;;;13.10;99.90;;;;;;5069847;28;20032;-66
2022/10/12 10:24:55;;;;;;;6.70;2.38;;;13.30;99.90;;;;;;5054970;28;20060;-66
2022/10/12 10:27:38;;;;;;;10.55;2.63;;;13.30;99.90;;;;;;5067663;28;20467;-66
2022/10/12 10:30:22;;;;;;;12.57;2.35;;;13.30;99.90;;;;;;5072436;28;20057;-66
2022/10/12 10:33:05;;;;;;;8.30;1.90;;;13.40;99.90;;;;;;5049431;28;20152;-69
2022/10/12 10:35:31;;;;;;;10.52;2.75;;;13.30;99.90;;;;;;5037677;28;20497;-67
2022/10/12 10:37:57;;;;;;;;;;;13.30;99.90;;;;;;5044602;28;20040;-67
2022/10/12 10:40:26;;;;;;;8.82;2.80;;;13.20;99.90;;;;;;5027185;28;19920;-66
2022/10/12 10:42:54;;;;;;;7.38;2.35;;;13.20;99.90;;;;;;5045427;28;20040;-62
2022/10/12 10:45:40;;;;;;;7.07;2.45;;;13.30;99.90;;;;;;5041986;28;20033;-67
2022/10/12 10:48:09;;;;;;;6.93;2.05;;;13.60;99.90;;;;;;5043203;28;20079;-65
2022/10/12 10:50:42;;;;;;;8.68;2.53;;;13.80;99.90;;;;;;5038357;28;20442;-65
2022/10/12 10:53:20;;;;;;;15.80;2.78;;;13.70;99.90;;;;;;5043102;28;20064;-65
2022/10/12 10:56:15;;;;;;;10.45;2.75;;;13.80;99.90;;;;;;5026966;28;20679;-65
2022/10/12 10:58:45;;;;;;;9.52;2.60;;;13.90;99.90;;;;;;5041321;28;20049;-67
2022/10/12 11:01:30;;;;;;;6.63;3.03;;;13.90;99.90;;;;;;5052966;28;20537;-65
2022/10/12 11:04:01;;;;;;;9.98;2.92;;;13.90;99.90;;;;;;5055304;28;20044;-64
2022/10/12 11:06:40;;;;;;;5.43;1.90;;;14.20;99.90;;;;;;5055185;28;20041;-66
2022/10/12 11:09:18;;;;;;;12.18;3.15;;;14.40;99.90;;;;;;5049614;28;20112;-65
2022/10/12 11:11:50;;;;;;;9.73;2.83;;;14.40;99.90;;;;;;5054248;28;20462;-65
2022/10/12 11:14:20;;;;;;;7.70;2.90;;;14.50;99.90;;;;;;5061417;28;20111;-65
2022/10/12 11:16:59;;;;;;;14.45;2.83;;;14.60;99.90;;;;;;5059653;28;20043;-65
2022/10/12 11:20:08;;;;;;;9.82;3.00;;;14.50;99.90;;;;;;5061558;28;20024;-65
2022/10/12 11:22:46;;;;;;;11.32;3.05;;;14.40;99.90;;;;;;5056321;28;20052;-64
2022/10/12 11:25:20;;;;;;;10.93;2.97;;;14.30;99.90;;;;;;5063890;28;20040;-64
2022/10/12 11:27:46;;;;;;;12.73;2.72;;;14.50;99.90;;;;;;5070442;28;20046;-66
2022/10/12 11:30:14;;;;;;;;;;;14.60;99.90;;;;;;5070578;28;20123;-66
2022/10/12 11:32:59;;;;;;;9.90;2.90;;;14.60;99.90;;;;;;5068832;28;19917;-66
2022/10/12 11:35:35;;;;;;;6.90;2.78;;;14.80;99.90;;;;;;5071262;28;20157;-65
2022/10/12 11:38:04;;;;;;;6.90;2.45;;;14.90;99.60;;;;;;5069104;28;20652;-65
2022/10/12 11:40:32;;;;;;;12.85;3.15;;;15.00;98.60;;;;;;5067604;28;20704;-65
2022/10/12 11:43:05;;;;;;;15.88;3.58;;;15.30;99.50;;;;;;5070706;28;20040;-65
2022/10/12 11:45:38;;;;;;;11.98;3.30;;;15.50;99.20;;;;;;5069149;28;20033;-65
2022/10/12 11:48:13;;;;;;;10.02;3.95;;;15.70;99.90;;;;;;5070358;28;20055;-65
2022/10/12 11:50:42;;;;;;;8.02;2.75;;;15.80;97.50;;;;;;5066401;28;20041;-65
2022/10/12 11:53:20;;;;;;;6.60;2.58;;;15.80;97.40;;;;;;5064666;28;20036;-65
2022/10/12 11:56:17;;;;;;;7.88;2.42;;;15.90;96.60;;;;;;5064108;28;20554;-64
2022/10/12 11:58:44;;;;;;;8.73;3.10;;;15.80;97.50;;;;;;5070628;28;20109;-65
2022/10/12 12:01:19;;;;;;;11.25;3.65;;;15.80;97.80;;;;;;5065453;28;20132;-63
2022/10/12 12:03:45;;;;;;;8.73;3.17;;;15.70;97.20;;;;;;5069471;28;20052;-65
2022/10/12 12:06:28;;;;;;;;;;;15.70;96.80;;;;;;5075994;28;20459;-64
2022/10/12 12:08:54;;;;;;;7.43;2.28;;;15.70;96.80;;;;;;5076405;28;20494;-64
2022/10/12 12:11:21;;;;;;;;;;;15.70;97.30;;;;;;5068972;28;20067;-64
2022/10/12 12:13:47;;;;;;;5.10;2.22;;;15.70;97.80;;;;;;5068360;28;20003;-64
2022/10/12 12:16:13;;;;;;;;;;;15.60;97.50;;;;;;5071750;28;20147;-65
2022/10/12 12:19:14;;;;;;;9.75;2.42;;;15.60;97.30;;;;;;5070086;28;19924;-64
2022/10/12 12:22:17;;;;;;;4.88;2.30;;;15.40;96.80;;;;;;5074853;28;20874;-64
2022/10/12 12:25:15;;;;;;;6.18;2.22;;;15.30;96.80;;;;;;5073232;28;20039;-64
2022/10/12 12:27:53;;;;;;;7.40;3.05;;;15.30;97.30;;;;;;5057606;28;20045;-66
2022/10/12 12:30:21;;;;;;;5.85;2.58;;;15.40;97.40;;;;;;5066911;28;20024;-67
2022/10/12 12:32:54;;;;;;;8.80;2.42;;;15.50;97.30;;;;;;5064656;28;20037;-66
2022/10/12 12:35:28;;;;;;;6.57;2.45;;;15.60;98.00;;;;;;5065257;28;20043;-64
2022/10/12 12:38:22;;;;;;;5.60;2.22;;;15.50;97.50;;;;;;5072216;28;20123;-67
2022/10/12 12:41:23;;;;;;;9.95;3.92;;;15.30;97.30;;;;;;5061881;28;20051;-66
2022/10/12 12:43:51;;;;;;;10.45;2.90;;;15.00;97.80;;;;;;5067024;28;20036;-65
2022/10/12 12:46:17;;;;;;;6.65;2.88;;;14.90;98.30;;;;;;5072449;28;20032;-65
2022/10/12 12:48:43;;;;;;;6.18;2.40;;;14.70;98.40;;;;;;5057357;28;20040;-65
2022/10/12 12:51:09;;;;;;;;;;;14.80;98.30;;;;;;5072813;28;20505;-65
2022/10/12 12:53:44;;;;;;;10.82;3.33;;;14.70;97.70;;;;;;4943901;28;19977;-65
2022/10/12 12:57:55;;;;;;;8.52;3.03;;;14.70;98.00;;;;;;5015691;27;20427;-66
2022/10/12 13:00:29;;;;;;;13.07;3.38;;;14.70;98.50;;;;;;4974249;28;20164;-66
2022/10/12 13:03:07;;;;;;;9.73;4.35;;;14.80;98.50;;;;;;5044915;28;20044;-66
2022/10/12 13:06:01;;;;;;;9.88;3.10;;;14.90;98.60;;;;;;5036459;28;20043;-66
2022/10/12 13:08:42;;;;;;;6.43;2.50;;;14.90;98.70;;;;;;5040838;28;20088;-62
2022/10/12 13:11:22;;;;;;;8.75;3.60;;;15.00;98.30;;;;;;5040545;28;20506;-67
2022/10/12 13:14:12;;;;;;;9.73;3.28;;;14.80;98.10;;;;;;5032346;28;20052;-64
2022/10/12 13:16:56;;;;;;;7.75;2.88;;;14.80;98.30;;;;;;5042996;28;20041;-65
2022/10/12 13:19:22;;;;;;;9.82;2.47;;;14.70;99.00;;;;;;5039211;28;20052;-65
2022/10/12 13:21:51;;;;;;;10.13;2.78;;;14.70;99.30;;;;;;5049337;28;20041;-65